^^
Datos históricos de la estación: Murcia-Puente Tocinos
Diario Informe para Mayo 21, 2019 Unidades:  Métrico    Ingés   Ambas
Diario Semanal Mensual Anual
  Máxima: Mínima: Promedio:
Temperatura: 28.1 °C 22.2 °C 24.9 °C
Punto de rocio: 21.7 °C 18.4 °C 20.1 °C
Humedad: 92% 56% 76%
Velocidad viento: 12.2km/h 0km/h 5.2km/h
Racha viento: 21.7km/h - -
Viento- - SSO
Presión: 1013.6 hPa 1009.1 hPa -
Precipitación: 0.0 mm    
 
 
Tabla de datos para Mayo 21, 2019
Hora Temperatura Punto de rocio Presión Viento Velocidad viento Racha viento Humedad Intensidad lluvia(por hora) Nubes
00:04 22.9 °C 21.3 °C 1013.1 hPa NNO 3.9 km/h 8 km/h 91% 0.0 mm
00:09 22.9 °C 21.3 °C 1013.1 hPa NO 4 km/h 8 km/h 91% 0.0 mm
00:14 22.9 °C 21.3 °C 1013.1 hPa NO 4.6 km/h 8 km/h 91% 0.0 mm
00:19 22.9 °C 21.3 °C 1013.3 hPa NO 4.2 km/h 1.9 km/h 91% 0.0 mm
00:24 22.9 °C 21.3 °C 1013.3 hPa NO 2.2 km/h 7.4 km/h 91% 0.0 mm
00:29 22.9 °C 21.3 °C 1013.3 hPa NO 2.5 km/h 8 km/h 91% 0.0 mm
00:34 22.9 °C 21.3 °C 1013.3 hPa NO 3.9 km/h 8 km/h 91% 0.0 mm
00:39 22.9 °C 21.3 °C 1013.0 hPa ONO 3.7 km/h 7.4 km/h 91% 0.0 mm
00:44 22.9 °C 21.3 °C 1013.0 hPa Oeste 2.9 km/h 8 km/h 91% 0.0 mm
00:49 22.9 °C 21.3 °C 1013.2 hPa Oeste 3.4 km/h 8 km/h 91% 0.0 mm
00:54 22.9 °C 21.3 °C 1013.2 hPa Oeste 4.7 km/h 8 km/h 91% 0.0 mm
00:59 23 °C 21.4 °C 1013.2 hPa Oeste 4.3 km/h 8 km/h 91% 0.0 mm
01:04 23 °C 21.4 °C 1013.6 hPa Oeste 3.2 km/h 8 km/h 91% 0.0 mm
01:09 23 °C 21.5 °C 1013.6 hPa Oeste 3.3 km/h 9.3 km/h 91% 0.0 mm
01:14 23.1 °C 21.6 °C 1013.6 hPa OSO 3.9 km/h 9.7 km/h 91% 0.0 mm
01:19 23.1 °C 21.6 °C 1013.6 hPa OSO 3.9 km/h 9.7 km/h 91% 0.0 mm
01:24 23.1 °C 21.5 °C 1013.4 hPa OSO 3.9 km/h 4.8 km/h 90.7% 0.0 mm
01:29 23.2 °C 21.4 °C 1013.4 hPa OSO 3.1 km/h 4.7 km/h 90% 0.0 mm
01:34 23.2 °C 21.4 °C 1013.4 hPa Calm   7.4 km/h 90% 0.0 mm
01:39 23.2 °C 21.4 °C 1013.3 hPa Oeste 0.6 km/h 8 km/h 90% 0.0 mm
01:44 23.2 °C 21.4 °C 1013.3 hPa ONO 2.9 km/h 7.6 km/h 90% 0.0 mm
01:49 23.2 °C 21.4 °C 1013.3 hPa NNO 3.1 km/h 8 km/h 90% 0.0 mm
01:54 23.2 °C 21.5 °C 1012.7 hPa NNO 3.9 km/h 8 km/h 90.1% 0.0 mm
01:59 23.2 °C 21.7 °C 1012.7 hPa NNO 3.5 km/h 8 km/h 91% 0.0 mm
02:04 23.2 °C 21.7 °C 1012.9 hPa NNO 2.2 km/h 5 km/h 91% 0.0 mm
02:09 23.2 °C 21.7 °C 1012.9 hPa OSO 2.4 km/h 7.6 km/h 91% 0.0 mm
02:14 23.2 °C 21.7 °C 1012.9 hPa OSO 2.9 km/h 8 km/h 91% 0.0 mm
02:19 23.2 °C 21.7 °C 1012.9 hPa OSO 2.9 km/h 8 km/h 91% 0.0 mm
02:24 23.2 °C 21.7 °C 1012.8 hPa Oeste 2.9 km/h 7.4 km/h 91% 0.0 mm
02:29 23.1 °C 21.6 °C 1012.8 hPa Oeste 3 km/h 8 km/h 91% 0.0 mm
02:34 23.1 °C 21.6 °C 1012.8 hPa NO 3.2 km/h 7.6 km/h 91% 0.0 mm
02:39 23.1 °C 21.6 °C 1012.5 hPa NO 3.5 km/h 8.7 km/h 91% 0.0 mm
02:44 23 °C 21.3 °C 1012.5 hPa NNO 4.7 km/h 9.7 km/h 90% 0.0 mm
02:49 22.9 °C 21.2 °C 1012.5 hPa NNE 4.7 km/h 9.7 km/h 90% 0.0 mm
02:54 22.9 °C 21.2 °C 1012.2 hPa NNE 4.7 km/h 8 km/h 90% 0.0 mm
02:59 22.9 °C 21.2 °C 1012.2 hPa NNE 4.3 km/h 8 km/h 90% 0.0 mm
03:04 22.8 °C 21.1 °C 1012.2 hPa NE 3.2 km/h 9.5 km/h 90% 0.0 mm
03:09 22.8 °C 21.1 °C 1011.8 hPa NE 3.8 km/h 11.1 km/h 90% 0.0 mm
03:14 22.8 °C 21 °C 1011.8 hPa ENE 6.4 km/h 11.3 km/h 90% 0.0 mm
03:19 22.7 °C 21 °C 1012.0 hPa North 5.8 km/h 9.7 km/h 90% 0.0 mm
03:24 22.7 °C 21 °C 1012.0 hPa ONO 3.2 km/h 4.8 km/h 90% 0.0 mm
03:29 22.7 °C 21 °C 1012.0 hPa ONO 3.2 km/h 4.8 km/h 90% 0.0 mm
03:34 22.7 °C 21 °C 1012.0 hPa ONO 2.9 km/h 4.8 km/h 90% 0.0 mm
03:39 22.7 °C 21.1 °C 1011.6 hPa ONO 2.3 km/h 3.7 km/h 91% 0.0 mm
03:44 22.6 °C 21.1 °C 1011.6 hPa Calm   3.2 km/h 91% 0.0 mm
03:49 22.6 °C 21.1 °C 1011.6 hPa Calm     91% 0.0 mm
03:54 22.6 °C 21.1 °C 1011.5 hPa Calm     91% 0.0 mm
03:59 22.6 °C 21.1 °C 1011.5 hPa Calm   4.7 km/h 91% 0.0 mm
04:04 22.6 °C 21.1 °C 1011.6 hPa Calm   7.6 km/h 91% 0.0 mm
04:09 22.7 °C 21.1 °C 1011.6 hPa Sur 0.9 km/h 8 km/h 91% 0.0 mm
04:14 22.6 °C 21.1 °C 1011.6 hPa SSE 4.7 km/h 10.3 km/h 91% 0.0 mm
04:19 22.6 °C 21.1 °C 1011.6 hPa SSE 4.9 km/h 11.3 km/h 91.2% 0.0 mm
04:24 22.6 °C 21.2 °C 1011.5 hPa SSE 5.8 km/h 11.3 km/h 92% 0.0 mm
04:29 22.7 °C 21.3 °C 1011.5 hPa SSE 5.3 km/h 8 km/h 92% 0.0 mm
04:34 22.7 °C 21.3 °C 1011.5 hPa Sur 2.9 km/h 6.4 km/h 92% 0.0 mm
04:39 22.7 °C 21.3 °C 1011.2 hPa NO 2.9 km/h 8 km/h 91.7% 0.0 mm
04:44 22.6 °C 21.1 °C 1011.2 hPa NNO 2.9 km/h 8 km/h 91% 0.0 mm
04:49 22.5 °C 20.9 °C 1011.2 hPa NO 3.1 km/h 8 km/h 91% 0.0 mm
04:54 22.4 °C 20.8 °C 1011.2 hPa Oeste 3.9 km/h 8 km/h 91% 0.0 mm
04:59 22.3 °C 20.8 °C 1011.2 hPa Oeste 3.7 km/h 8 km/h 91% 0.0 mm
05:04 22.3 °C 20.8 °C 1011.2 hPa ONO 3.2 km/h 9.5 km/h 91% 0.0 mm
05:09 22.3 °C 20.8 °C 1011.2 hPa ONO 3.3 km/h 9.7 km/h 91% 0.0 mm
05:14 22.3 °C 20.8 °C 1011.2 hPa ONO 3.9 km/h 8 km/h 91% 0.0 mm
05:19 22.3 °C 20.8 °C 1011.2 hPa Oeste 3.7 km/h 7.4 km/h 91% 0.0 mm
05:24 22.3 °C 20.8 °C 1011.2 hPa Oeste 3.2 km/h 8.4 km/h 91.1% 0.0 mm
05:29 22.3 °C 20.8 °C 1011.2 hPa NO 3.5 km/h 8.4 km/h 91% 0.0 mm
05:34 22.3 °C 20.8 °C 1011.2 hPa NO 4.7 km/h 8 km/h 91% 0.0 mm
05:39 22.3 °C 20.8 °C 1010.9 hPa NO 4.4 km/h 8 km/h 91% 0.0 mm
05:44 22.2 °C 20.7 °C 1010.9 hPa NO 3.2 km/h 4.8 km/h 91% 0.0 mm
05:49 22.2 °C 20.7 °C 1011.1 hPa NO 2.6 km/h 3.7 km/h 91% 0.0 mm
05:54 22.2 °C 20.7 °C 1011.1 hPa Calm     91% 0.0 mm
05:59 22.2 °C 20.7 °C 1011.1 hPa Calm   2.3 km/h 91% 0.0 mm
06:04 22.2 °C 20.7 °C 1011.1 hPa Calm   1.6 km/h 91% 0.0 mm
06:09 22.2 °C 20.7 °C 1010.8 hPa Calm     91% 0.0 mm
06:14 22.2 °C 20.7 °C 1010.8 hPa Calm     91% 0.0 mm
06:19 22.3 °C 20.8 °C 1011.0 hPa Calm   4.7 km/h 91% 0.0 mm
06:24 22.3 °C 20.8 °C 1011.0 hPa Calm   7.4 km/h 91% 0.0 mm
06:29 22.3 °C 20.8 °C 1011.0 hPa OSO 0.8 km/h 8 km/h 91% 0.0 mm
06:34 22.3 °C 20.8 °C 1011.2 hPa OSO 3.9 km/h 8 km/h 91% 0.0 mm
06:39 22.3 °C 20.8 °C 1011.2 hPa OSO 3.9 km/h 8 km/h 91% 0.0 mm
06:44 22.2 °C 20.7 °C 1011.2 hPa OSO 3.9 km/h 8 km/h 91% 0.0 mm
06:49 22.2 °C 20.7 °C 1011.4 hPa OSO 3.9 km/h 8 km/h 91% 0.0 mm
06:54 22.2 °C 20.7 °C 1011.4 hPa OSO 3.9 km/h 6.4 km/h 91% 0.0 mm
06:59 22.3 °C 20.7 °C 1011.4 hPa OSO 3.6 km/h 4.8 km/h 91% 0.0 mm
07:04 22.3 °C 20.8 °C 1011.4 hPa OSO 2.9 km/h 4.8 km/h 91% 0.0 mm
07:09 22.3 °C 20.8 °C 1011.4 hPa OSO 2.3 km/h   91% 0.0 mm
07:14 22.3 °C 20.7 °C 1011.4 hPa Calm   5 km/h 90.5% 0.0 mm
07:19 22.4 °C 20.7 °C 1011.4 hPa Oeste 0.4 km/h 5.6 km/h 90% 0.0 mm
07:24 22.4 °C 20.7 °C 1011.2 hPa Oeste 2.2 km/h 5.6 km/h 90% 0.0 mm
07:29 22.4 °C 20.7 °C 1011.2 hPa Oeste 2.4 km/h 4.8 km/h 90% 0.0 mm
07:34 22.4 °C 20.7 °C 1011.2 hPa Oeste 2.9 km/h 4.8 km/h 90% 0.0 mm
07:39 22.4 °C 20.7 °C 1011.1 hPa Oeste 2.8 km/h 3.7 km/h 90% 0.0 mm
07:44 22.3 °C 20.6 °C 1011.1 hPa Oeste 2.2 km/h 2.3 km/h 89.7% 0.0 mm
07:49 22.3 °C 20.4 °C 1011.4 hPa Oeste 1.8 km/h 5.8 km/h 89% 0.0 mm
07:54 22.2 °C 20.4 °C 1011.4 hPa Calm   6.4 km/h 89.7% 0.0 mm
07:59 22.2 °C 20.4 °C 1011.4 hPa OSO 0.9 km/h 7.4 km/h 89.6% 0.0 mm
08:04 22.2 °C 20.3 °C 1011.5 hPa OSO 3.9 km/h 8 km/h 89% 0.0 mm
08:09 22.2 °C 20.3 °C 1011.5 hPa OSO 3.9 km/h 8 km/h 89% 0.0 mm
08:14 22.3 °C 20.4 °C 1011.5 hPa SO 3.9 km/h 8 km/h 89% 0.0 mm
08:19 22.3 °C 20.4 °C 1011.5 hPa Sur 3.7 km/h 6.4 km/h 89% 0.0 mm
08:24 22.4 °C 20.4 °C 1011.4 hPa Sur 3.2 km/h 5.8 km/h 88.6% 0.0 mm
08:29 22.4 °C 20.4 °C 1011.4 hPa SO 3.2 km/h 6.4 km/h 88.4% 0.0 mm
08:34 22.4 °C 20.3 °C 1011.5 hPa SSO 3.2 km/h 8 km/h 87.8% 0.0 mm
08:39 22.4 °C 20.1 °C 1011.5 hPa SSO 3.5 km/h 8 km/h 87% 0.0 mm
08:44 22.5 °C 20.2 °C 1011.5 hPa SSO 4.7 km/h 9.3 km/h 87% 0.0 mm
08:49 22.6 °C 20.3 °C 1011.7 hPa SSO 4.7 km/h 9.7 km/h 86.8% 0.0 mm
08:54 22.6 °C 20.1 °C 1011.7 hPa SO 5 km/h 8 km/h 86% 0.0 mm
08:59 22.6 °C 20.1 °C 1011.7 hPa SO 5 km/h 11.1 km/h 85.6% 0.0 mm
09:04 22.7 °C 20.2 °C 1011.8 hPa SSO 5 km/h 11.3 km/h 85.7% 0.0 mm
09:09 22.7 °C 20.1 °C 1011.8 hPa SSO 5 km/h 9.7 km/h 85.5% 0.0 mm
09:14 22.8 °C 20.2 °C 1011.8 hPa SSO 5 km/h 10 km/h 85.6% 0.0 mm
09:19 22.8 °C 20.3 °C 1012.0 hPa Sur 5.1 km/h 9.7 km/h 86% 0.0 mm
09:24 22.8 °C 20.4 °C 1012.0 hPa SSO 5.8 km/h 9.7 km/h 86% 0.0 mm
09:29 22.9 °C 20.4 °C 1012.0 hPa SSO 5.9 km/h 10 km/h 85.8% 0.0 mm
09:34 22.9 °C 20.5 °C 1012.0 hPa SSO 6.4 km/h 11.1 km/h 86% 0.0 mm
09:39 23.1 °C 20.5 °C 1011.9 hPa Sur 6.5 km/h 13 km/h 85.6% 0.0 mm
09:44 23.1 °C 20.5 °C 1011.9 hPa SSO 6.9 km/h 12.9 km/h 85% 0.0 mm
09:49 23.2 °C 20.5 °C 1012.0 hPa SSO 7.1 km/h 13 km/h 84.8% 0.0 mm
09:54 23.3 °C 20.4 °C 1012.0 hPa SSO 7.6 km/h 14.8 km/h 84% 0.0 mm
09:59 23.3 °C 20.4 °C 1012.0 hPa SO 7.8 km/h 14.8 km/h 83.8% 0.0 mm
10:04 23.3 °C 20.5 °C 1012.1 hPa SO 8.7 km/h 14.8 km/h 83.7% 0.0 mm
10:09 23.4 °C 20.4 °C 1012.1 hPa OSO 8.7 km/h 13 km/h 83.6% 0.0 mm
10:14 23.5 °C 20.5 °C 1012.1 hPa OSO 8.7 km/h 12.9 km/h 83.4% 0.0 mm
10:19 23.6 °C 20.5 °C 1012.3 hPa SO 8.3 km/h 11.3 km/h 82.6% 0.0 mm
10:24 23.7 °C 20.5 °C 1012.3 hPa SSO 6.5 km/h 13 km/h 81.8% 0.0 mm
10:29 23.8 °C 20.4 °C 1012.3 hPa SO 6.6 km/h 13 km/h 81% 0.0 mm
10:34 24 °C 20.6 °C 1012.3 hPa SO 6.9 km/h 13 km/h 81% 0.0 mm
10:39 24.2 °C 20.6 °C 1012.3 hPa SSO 6.9 km/h 13 km/h 80.3% 0.0 mm
10:44 24.2 °C 20.6 °C 1012.3 hPa SO 6.9 km/h 11.3 km/h 80% 0.0 mm
10:49 24.3 °C 20.5 °C 1012.3 hPa SSO 6.9 km/h 11.9 km/h 79.6% 0.0 mm
10:54 24.3 °C 20.4 °C 1012.2 hPa SSO 6.9 km/h 13 km/h 79% 0.0 mm
10:59 24.3 °C 20.3 °C 1012.2 hPa SSO 7.3 km/h 13 km/h 78.4% 0.0 mm
11:04 24.4 °C 20.5 °C 1012.3 hPa SSO 8.4 km/h 12.9 km/h 79% 0.0 mm
11:09 24.7 °C 20.6 °C 1012.3 hPa SO 7.8 km/h 11.1 km/h 78.1% 0.0 mm
11:14 24.8 °C 20.4 °C 1012.3 hPa SO 5 km/h 13 km/h 76.4% 0.0 mm
11:19 24.7 °C 20.2 °C 1012.4 hPa OSO 5.4 km/h 12.9 km/h 76% 0.0 mm
11:24 24.8 °C 20 °C 1012.4 hPa OSO 6.9 km/h 11.1 km/h 74.8% 0.0 mm
11:29 24.8 °C 19.9 °C 1012.4 hPa OSO 6.7 km/h 11.3 km/h 74.1% 0.0 mm
11:34 25.1 °C 20.1 °C 1012.6 hPa NO 5.8 km/h 9.7 km/h 74% 0.0 mm
11:39 25.4 °C 20.2 °C 1012.6 hPa Oeste 5.4 km/h 9.5 km/h 73% 0.0 mm
11:44 25.7 °C 20.1 °C 1012.6 hPa SSO 3.9 km/h 9.7 km/h 71.5% 0.0 mm
11:49 25.9 °C 20.2 °C 1012.6 hPa SO 3.9 km/h 10 km/h 70.7% 0.0 mm
11:54 26.1 °C 20 °C 1012.6 hPa Oeste 3.9 km/h 9.7 km/h 69.1% 0.0 mm
11:59 26.1 °C 19.9 °C 1012.6 hPa Oeste 4.5 km/h 11.1 km/h 69% 0.0 mm
12:04 25.9 °C 19.8 °C 1012.6 hPa Oeste 6.4 km/h 11.3 km/h 69.1% 0.0 mm
12:09 26.1 °C 20 °C 1012.4 hPa SSO 6.5 km/h 13 km/h 69.3% 0.0 mm
12:14 26.2 °C 20 °C 1012.4 hPa SO 6.5 km/h 12.9 km/h 68.7% 0.0 mm
12:19 26.3 °C 20.1 °C 1012.4 hPa NO 6.1 km/h 8.7 km/h 68.3% 0.0 mm
12:24 26.6 °C 20.1 °C 1012.1 hPa NNO 4.7 km/h 9.3 km/h 67.6% 0.0 mm
12:29 26.7 °C 20.1 °C 1012.1 hPa NNO 4.7 km/h 9.7 km/h 67% 0.0 mm
12:34 27 °C 20.1 °C 1012.1 hPa ENE 4.7 km/h 10 km/h 66.2% 0.0 mm
12:39 27.2 °C 20 °C 1011.9 hPa SSE 4.9 km/h 11.9 km/h 65.1% 0.0 mm
12:44 27.2 °C 19.9 °C 1011.9 hPa SO 5.8 km/h 13.7 km/h 64.6% 0.0 mm
12:49 27.2 °C 19.8 °C 1011.9 hPa OSO 6 km/h 14.5 km/h 64% 0.0 mm
12:54 27 °C 19.8 °C 1011.9 hPa Sur 6.9 km/h 11.3 km/h 65.1% 0.0 mm
12:59 26.9 °C 19.8 °C 1011.9 hPa Sur 6.7 km/h 11.1 km/h 64.9% 0.0 mm
13:04 26.9 °C 19.8 °C 1011.9 hPa Sur 5.8 km/h 11.3 km/h 65% 0.0 mm
13:09 27 °C 19.8 °C 1011.8 hPa OSO 5.6 km/h 9.7 km/h 64.7% 0.0 mm
13:14 27.2 °C 19.5 °C 1011.8 hPa SSE 5 km/h 15.6 km/h 63% 0.0 mm
13:19 27.3 °C 19.5 °C 1011.8 hPa Sur 5.5 km/h 16.1 km/h 62.5% 0.0 mm
13:24 27.2 °C 19.4 °C 1011.6 hPa Oeste 7.6 km/h 11.3 km/h 62.4% 0.0 mm
13:29 27.3 °C 19.5 °C 1011.6 hPa SSO 7.3 km/h 13.7 km/h 62.2% 0.0 mm
13:34 27.4 °C 19.5 °C 1011.6 hPa Oeste 5.8 km/h 14.5 km/h 62% 0.0 mm
13:39 27.4 °C 19.5 °C 1011.4 hPa Oeste 5.4 km/h 10 km/h 62% 0.0 mm
13:44 27.6 °C 19.6 °C 1011.4 hPa SE 3.9 km/h 14.8 km/h 61.8% 0.0 mm
13:49 27.7 °C 19.4 °C 1011.4 hPa SE 4.5 km/h 16.1 km/h 61% 0.0 mm
13:54 27.5 °C 19.6 °C 1011.2 hPa SE 7.6 km/h 16.7 km/h 62% 0.0 mm
13:59 27.4 °C 19.5 °C 1011.2 hPa SE 7.8 km/h 14.8 km/h 62% 0.0 mm
14:04 27.4 °C 19.5 °C 1011.2 hPa SSE 8.7 km/h 14.5 km/h 62.2% 0.0 mm
14:09 27.4 °C 19.5 °C 1011.1 hPa Sur 8.6 km/h 13 km/h 61.8% 0.0 mm
14:14 27.5 °C 19.5 °C 1011.1 hPa SSE 8.4 km/h 13 km/h 62% 0.0 mm
14:19 27.4 °C 19.5 °C 1011.1 hPa SSE 8.2 km/h 13 km/h 62% 0.0 mm
14:24 27.4 °C 19.5 °C 1011.1 hPa SSO 7.6 km/h 12.9 km/h 62% 0.0 mm
14:29 27.5 °C 19.6 °C 1011.1 hPa SSE 7.4 km/h 11.9 km/h 62.1% 0.0 mm
14:34 27.6 °C 19.6 °C 1011.1 hPa SE 6.5 km/h 13 km/h 61.8% 0.0 mm
14:39 27.7 °C 19.7 °C 1011.0 hPa SE 6.7 km/h 13 km/h 61.9% 0.0 mm
14:44 27.7 °C 19.7 °C 1011.0 hPa SE 7.6 km/h 11.3 km/h 61.8% 0.0 mm
14:49 27.7 °C 19.8 °C 1011.0 hPa SE 7.6 km/h 14.8 km/h 62% 0.0 mm
14:54 27.7 °C 19.7 °C 1010.8 hPa SE 7.6 km/h 16.7 km/h 61.7% 0.0 mm
14:59 27.6 °C 19.4 °C 1010.8 hPa SSE 7.8 km/h 16.7 km/h 61% 0.0 mm
15:04 27.6 °C 19.4 °C 1010.8 hPa Sur 8.7 km/h 16.1 km/h 61% 0.0 mm
15:09 27.6 °C 19.4 °C 1010.8 hPa Sur 8.7 km/h 14.5 km/h 61% 0.0 mm
15:14 27.7 °C 19.4 °C 1010.8 hPa SSE 8.7 km/h 13.7 km/h 60.7% 0.0 mm
15:19 27.7 °C 19.5 °C 1010.8 hPa SSE 8.6 km/h 14.5 km/h 60.8% 0.0 mm
15:24 27.8 °C 19.3 °C 1010.4 hPa Sur 8.4 km/h 14.8 km/h 60% 0.0 mm
15:29 27.8 °C 19.3 °C 1010.4 hPa Sur 8.4 km/h 14.5 km/h 60% 0.0 mm
15:34 27.8 °C 19.3 °C 1010.4 hPa SSO 8.7 km/h 12.9 km/h 59.9% 0.0 mm
15:39 27.8 °C 19.5 °C 1010.2 hPa Sur 8.2 km/h 11.9 km/h 60.4% 0.0 mm
15:44 27.8 °C 19.3 °C 1010.2 hPa SSE 5.8 km/h 13.7 km/h 59.8% 0.0 mm
15:49 27.8 °C 19.3 °C 1010.2 hPa Sur 6 km/h 14.5 km/h 60% 0.0 mm
15:54 27.8 °C 19.3 °C 1010.1 hPa SE 6.9 km/h 11.3 km/h 60% 0.0 mm
15:59 27.9 °C 19.4 °C 1010.1 hPa SE 6.5 km/h 13 km/h 60.1% 0.0 mm
16:04 27.9 °C 19.4 °C 1010.2 hPa SE 5 km/h 15.6 km/h 60% 0.0 mm
16:09 27.9 °C 19.4 °C 1010.2 hPa Sur 5.7 km/h 16.1 km/h 60.2% 0.0 mm
16:14 27.8 °C 19.5 °C 1010.2 hPa SSE 8.7 km/h 13 km/h 60.4% 0.0 mm
16:19 27.8 °C 19.3 °C 1010.2 hPa Sur 8.9 km/h 16.7 km/h 60% 0.0 mm
16:24 27.8 °C 19.3 °C 1010.2 hPa Sur 9.5 km/h 17.2 km/h 60% 0.0 mm
16:29 27.8 °C 19.3 °C 1010.2 hPa Sur 9.3 km/h 17.7 km/h 59.9% 0.0 mm
16:34 27.8 °C 19.1 °C 1010.2 hPa SO 8.4 km/h 11.9 km/h 59% 0.0 mm
16:39 27.8 °C 19.1 °C 1010.1 hPa Sur 7.8 km/h 11.3 km/h 59% 0.0 mm
16:44 27.9 °C 19.2 °C 1010.1 hPa Sur 5.8 km/h 13 km/h 59% 0.0 mm
16:49 27.8 °C 19.1 °C 1010.1 hPa SSE 6 km/h 13 km/h 59% 0.0 mm
16:54 27.8 °C 19.2 °C 1009.9 hPa Sur 6.9 km/h 12.9 km/h 59.4% 0.0 mm
16:59 27.8 °C 19.4 °C 1009.9 hPa Sur 6.9 km/h 16.7 km/h 60% 0.0 mm
17:04 27.8 °C 19.3 °C 1010.1 hPa Sur 6.9 km/h 16.7 km/h 60% 0.0 mm
17:09 27.9 °C 19.4 °C 1010.1 hPa SE 7.2 km/h 16.1 km/h 60% 0.0 mm
17:14 27.9 °C 19.4 °C 1010.1 hPa Sur 8.4 km/h 11.9 km/h 59.8% 0.0 mm
17:19 28 °C 19.5 °C 1010.1 hPa Sur 8.1 km/h 15.6 km/h 60% 0.0 mm
17:24 28.1 °C 19.4 °C 1010.0 hPa SSE 6.9 km/h 16.1 km/h 59.1% 0.0 mm
17:29 28 °C 19.2 °C 1010.0 hPa SSE 7.5 km/h 14.5 km/h 58.9% 0.0 mm
17:34 28 °C 19.1 °C 1010.0 hPa Sur 9.5 km/h 14.8 km/h 58.7% 0.0 mm
17:39 28 °C 19.2 °C 1010.0 hPa Sur 9.3 km/h 14.5 km/h 59% 0.0 mm
17:44 28 °C 18.9 °C 1010.0 hPa Sur 8.4 km/h 16.7 km/h 57.6% 0.0 mm
17:49 28 °C 18.6 °C 1010.0 hPa SSE 8.6 km/h 16.7 km/h 56.7% 0.0 mm
17:54 28 °C 18.4 °C 1009.9 hPa SSE 9.5 km/h 17.2 km/h 56% 0.0 mm
17:59 28.1 °C 18.6 °C 1009.9 hPa SSE 9.7 km/h 19 km/h 56.5% 0.0 mm
18:04 28 °C 19 °C 1010.0 hPa Sur 10.3 km/h 21.7 km/h 58.3% 0.0 mm
18:09 27.8 °C 19.1 °C 1010.0 hPa Sur 10.7 km/h 20.9 km/h 59% 0.0 mm
18:14 27.8 °C 19.1 °C 1010.0 hPa Sur 12.2 km/h 19.3 km/h 59.3% 0.0 mm
18:19 27.7 °C 19.2 °C 1010.0 hPa SSE 11.8 km/h 17.2 km/h 59.9% 0.0 mm
18:24 27.6 °C 19.1 °C 1009.8 hPa SSE 10 km/h 17.7 km/h 60% 0.0 mm
18:29 27.6 °C 19.1 °C 1009.8 hPa SSE 9.7 km/h 16.1 km/h 60% 0.0 mm
18:34 27.6 °C 19.2 °C 1010.1 hPa SSE 8.4 km/h 12.9 km/h 60.2% 0.0 mm
18:39 27.6 °C 19.1 °C 1010.1 hPa Sur 8.1 km/h 11.9 km/h 60% 0.0 mm
18:44 27.4 °C 19 °C 1010.1 hPa SSE 6.9 km/h 11.9 km/h 60.1% 0.0 mm
18:49 27.4 °C 19.2 °C 1010.3 hPa Sur 7.2 km/h 13 km/h 60.9% 0.0 mm
18:54 27.3 °C 18.9 °C 1010.3 hPa Sur 8.4 km/h 12.9 km/h 60.1% 0.0 mm
18:59 27.3 °C 18.8 °C 1010.3 hPa SSE 8.2 km/h 11.9 km/h 60% 0.0 mm
19:04 27.2 °C 18.8 °C 1010.3 hPa SSE 7.6 km/h 11.9 km/h 59.9% 0.0 mm
19:09 27.2 °C 18.8 °C 1010.2 hPa SSE 7.7 km/h 14.8 km/h 60% 0.0 mm
19:14 27.1 °C 18.7 °C 1010.2 hPa Sur 8.4 km/h 14.5 km/h 60% 0.0 mm
19:19 27.1 °C 18.7 °C 1010.4 hPa Sur 8.2 km/h 13 km/h 60% 0.0 mm
19:24 27 °C 18.7 °C 1010.4 hPa Sur 7.6 km/h 13 km/h 60.3% 0.0 mm
19:29 26.9 °C 18.7 °C 1010.4 hPa Sur 7.7 km/h 11.9 km/h 61% 0.0 mm
19:34 26.9 °C 18.7 °C 1010.6 hPa Sur 8.4 km/h 15.6 km/h 61% 0.0 mm
19:39 26.8 °C 18.9 °C 1010.6 hPa Sur 8.4 km/h 16.1 km/h 61.8% 0.0 mm
19:44 26.8 °C 18.9 °C 1010.6 hPa Sur 8.4 km/h 16.7 km/h 62% 0.0 mm
19:49 26.8 °C 19 °C 1010.6 hPa Sur 8.4 km/h 16.1 km/h 62.3% 0.0 mm
19:54 26.7 °C 19.1 °C 1010.6 hPa Sur 8.7 km/h 16.1 km/h 63% 0.0 mm
19:59 26.7 °C 19 °C 1010.6 hPa SSO 8.6 km/h 13 km/h 63% 0.0 mm
20:04 26.6 °C 18.9 °C 1010.6 hPa SSO 8.4 km/h 16.1 km/h 62.7% 0.0 mm
20:09 26.6 °C 18.8 °C 1010.6 hPa SSO 8.6 km/h 16.1 km/h 62.3% 0.0 mm
20:14 26.6 °C 18.9 °C 1010.6 hPa Sur 9.5 km/h 14.8 km/h 62.7% 0.0 mm
20:19 26.5 °C 18.7 °C 1010.6 hPa SSE 9.3 km/h 14.8 km/h 62.2% 0.0 mm
20:24 26.4 °C 18.7 °C 1010.2 hPa Este 8.7 km/h 14.8 km/h 62.6% 0.0 mm
20:29 26.3 °C 19 °C 1010.2 hPa NE 8.9 km/h 19 km/h 64.2% 0.0 mm
20:34 25.9 °C 19.3 °C 1010.2 hPa ENE 9.5 km/h 20.9 km/h 66.9% 0.0 mm
20:39 25.7 °C 19.4 °C 1009.1 hPa SSE 9.6 km/h 20.9 km/h 68.1% 0.0 mm
20:44 25.6 °C 19.4 °C 1009.1 hPa SO 10 km/h 15.6 km/h 68.5% 0.0 mm
20:49 25.6 °C 19.3 °C 1010.5 hPa OSO 9.7 km/h 16.1 km/h 68% 0.0 mm
20:54 25.6 °C 19 °C 1010.5 hPa OSO 8.4 km/h 14.5 km/h 67% 0.0 mm
20:59 25.7 °C 19.1 °C 1010.5 hPa SSE 7.8 km/h 14.8 km/h 66.8% 0.0 mm
21:04 25.8 °C 18.9 °C 1010.5 hPa SSO 5.8 km/h 15.6 km/h 66% 0.0 mm
21:09 25.8 °C 18.9 °C 1010.5 hPa SO 6.1 km/h 16.1 km/h 66% 0.0 mm
21:14 25.8 °C 19 °C 1010.5 hPa SO 6.9 km/h 9.5 km/h 66.3% 0.0 mm
21:19 25.8 °C 19.2 °C 1010.5 hPa SO 6.5 km/h 9.7 km/h 67% 0.0 mm
21:24 25.8 °C 19.2 °C 1010.5 hPa SO 4.7 km/h 8 km/h 67% 0.0 mm
21:29 25.8 °C 19.2 °C 1010.5 hPa SO 4.3 km/h 8 km/h 67% 0.0 mm
21:34 25.7 °C 19.1 °C 1010.8 hPa SO 2.9 km/h 5.8 km/h 67% 0.0 mm
21:39 25.7 °C 19.2 °C 1010.8 hPa SE 2.9 km/h 7.4 km/h 67.2% 0.0 mm
21:44 25.7 °C 19.3 °C 1010.8 hPa Este 2.9 km/h 8 km/h 68% 0.0 mm
21:49 25.7 °C 19.3 °C 1010.8 hPa ENE 2.9 km/h 7.4 km/h 68% 0.0 mm
21:54 25.5 °C 19.2 °C 1010.7 hPa NE 2.9 km/h 9.3 km/h 68% 0.0 mm
21:59 25.4 °C 19.1 °C 1010.7 hPa NNE 3.4 km/h 9.7 km/h 68% 0.0 mm
22:04 25.4 °C 19.1 °C 1010.9 hPa NE 5 km/h 8 km/h 68.1% 0.0 mm
22:09 25.4 °C 19.3 °C 1010.9 hPa NE 4.6 km/h 6.4 km/h 69% 0.0 mm
22:14 25.4 °C 19.3 °C 1010.9 hPa NE 2.9 km/h 4.8 km/h 69% 0.0 mm
22:19 25.3 °C 19.2 °C 1011.1 hPa NE 2.8 km/h 5.6 km/h 69% 0.0 mm
22:24 25.3 °C 19.3 °C 1011.1 hPa ENE 2.2 km/h 7.4 km/h 69.3% 0.0 mm
22:29 25.3 °C 19.4 °C 1011.1 hPa ESE 2.4 km/h 8 km/h 70% 0.0 mm
22:34 25.2 °C 19.3 °C 1011.1 hPa ESE 3.2 km/h 4.8 km/h 70% 0.0 mm
22:39 25.2 °C 19.3 °C 1011.1 hPa ESE 2.6 km/h 6.4 km/h 70% 0.0 mm
22:44 25.2 °C 19.4 °C 1011.1 hPa Calm   8 km/h 70.6% 0.0 mm
22:49 25.1 °C 19.4 °C 1011.2 hPa ESE 0.8 km/h 8 km/h 71% 0.0 mm
22:54 25.1 °C 19.5 °C 1011.2 hPa ESE 3.9 km/h 6.4 km/h 71.3% 0.0 mm
22:59 25 °C 19.6 °C 1011.2 hPa ESE 3.6 km/h 8 km/h 71.9% 0.0 mm
23:04 24.9 °C 19.6 °C 1011.3 hPa ESE 2.9 km/h 8 km/h 72.6% 0.0 mm
23:09 24.9 °C 19.9 °C 1011.3 hPa NO 3 km/h 8 km/h 73.7% 0.0 mm
23:14 24.8 °C 20 °C 1011.3 hPa NNO 3.2 km/h 8 km/h 74.8% 0.0 mm
23:19 24.7 °C 20.1 °C 1011.5 hPa NNO 3.3 km/h 8 km/h 75.6% 0.0 mm
23:24 24.6 °C 20 °C 1011.5 hPa North 3.9 km/h 8 km/h 75.7% 0.0 mm
23:29 24.5 °C 19.7 °C 1011.5 hPa North 3.2 km/h 4.8 km/h 75% 0.0 mm
23:34 24.4 °C 19.7 °C 1011.5 hPa Calm     75% 0.0 mm
23:39 24.4 °C 19.6 °C 1011.5 hPa Calm   2.9 km/h 74.7% 0.0 mm
23:44 24.5 °C 19.7 °C 1011.5 hPa Calm   9.3 km/h 75% 0.0 mm
23:49 24.5 °C 19.8 °C 1011.5 hPa NO 0.8 km/h 9.7 km/h 75% 0.0 mm
23:54 24.5 °C 19.8 °C 1011.3 hPa NO 3.9 km/h 8 km/h 75.1% 0.0 mm
23:59 24.4 °C 19.7 °C 1011.3 hPa OSO 3.7 km/h 7.4 km/h 75.1% 0.0 mm
Murcia-Puente Tocinos, España
Compliments of Weather Underground - 3 mb

La estación de MeteoMurcia.com, publica sus datos en los siguientes proyectos:

Weather Underground PWS IMURCIAP2 Meteoclimatic www.awekas.at

W3Counter
Web Analytics